Time;durP1;ratioP1;P1;durP2;ratioP2;P2;SDS_P1;SDS_P2;PMS_P1;PMS_P2;Temp;Humidity;BMP_temperature;BMP_pressure;BME280_temperature;BME280_humidity;BME280_pressure;Samples;Min_cycle;Max_cycle;Signal;HPM_P1;HPM_P2
2023/08/06 00:05:30;;;;;;;;;;;14.20;99.90;;;;;;12502825;28;19928;-37
2023/08/06 00:11:31;;;;;;;;;;;14.20;99.90;;;;;;12519154;28;20327;-36
2023/08/06 00:17:33;;;;;;;;;;;14.20;99.90;;;;;;12505397;28;20396;-35
2023/08/06 00:23:35;;;;;;;;;;;14.20;99.90;;;;;;12516280;28;19929;-35
2023/08/06 00:29:37;;;;;;;;;;;14.10;99.90;;;;;;12526895;28;19932;-35
2023/08/06 00:35:39;;;;;;;;;;;14.10;99.90;;;;;;12521517;28;19956;-35
2023/08/06 00:41:41;;;;;;;;;;;14.10;99.90;;;;;;12522095;28;19983;-35
2023/08/06 00:47:43;;;;;;;;;;;14.00;99.90;;;;;;12515404;28;19964;-35
2023/08/06 00:53:45;;;;;;;;;;;13.90;99.90;;;;;;12524315;28;19925;-35
2023/08/06 00:59:47;;;;;;;;;;;14.00;99.90;;;;;;12504487;28;19933;-35
2023/08/06 01:05:49;;;;;;;;;;;14.10;99.90;;;;;;12529118;28;19925;-36
2023/08/06 01:11:57;;;;;;;;;;;14.20;99.90;;;;;;12517706;28;20255;-35
2023/08/06 01:17:59;;;;;;;;;;;14.30;99.90;;;;;;12529714;28;19987;-37
2023/08/06 01:24:00;;;;;;;;;;;14.30;99.90;;;;;;12526393;28;19929;-34
2023/08/06 01:30:05;;;;;;;;;;;14.40;99.90;;;;;;12512052;28;19971;-35
2023/08/06 01:36:08;;;;;;;;;;;14.60;99.90;;;;;;12527982;28;19940;-35
2023/08/06 01:42:09;;;;;;;;;;;14.60;99.90;;;;;;12521243;28;20444;-35
2023/08/06 01:48:11;;;;;;;;;;;14.30;99.90;;;;;;12517086;28;20335;-35
2023/08/06 01:54:13;;;;;;;;;;;14.10;99.90;;;;;;12515920;28;20067;-35
2023/08/06 02:00:15;;;;;;;;;;;14.20;99.90;;;;;;12530450;28;19960;-34
2023/08/06 02:06:16;;;;;;;;;;;14.10;99.90;;;;;;12529885;28;20783;-34
2023/08/06 02:12:18;;;;;;;;;;;14.00;99.90;;;;;;12528277;28;20382;-35
2023/08/06 02:18:20;;;;;;;;;;;14.20;99.90;;;;;;12526815;28;19931;-35
2023/08/06 02:24:22;;;;;;;;;;;14.30;99.90;;;;;;12528513;28;19929;-36
2023/08/06 02:30:23;;;;;;;;;;;14.50;99.90;;;;;;12519985;28;19978;-35
2023/08/06 02:36:29;;;;;;;;;;;14.60;99.90;;;;;;12524826;28;19964;-35
2023/08/06 02:42:30;;;;;;;;;;;14.60;99.90;;;;;;12517128;28;19937;-35
2023/08/06 02:48:32;;;;;;;;;;;14.60;99.90;;;;;;12516487;28;20413;-36
2023/08/06 02:54:34;;;;;;;;;;;14.60;99.90;;;;;;12511996;28;20078;-35
2023/08/06 03:00:35;;;;;;;;;;;14.60;99.90;;;;;;12504652;28;20372;-35
2023/08/06 03:06:37;;;;;;;;;;;14.60;99.90;;;;;;12500829;28;19932;-35
2023/08/06 03:12:39;;;;;;;;;;;14.60;99.90;;;;;;12500746;28;19933;-35
2023/08/06 03:18:41;;;;;;;;;;;14.50;99.90;;;;;;12494274;28;19975;-35
2023/08/06 03:24:42;;;;;;;;;;;14.40;99.90;;;;;;12492487;28;19956;-35
2023/08/06 03:30:44;;;;;;;;;;;14.40;99.90;;;;;;12493232;28;19941;-36
2023/08/06 03:36:46;;;;;;;;;;;14.40;99.90;;;;;;12497616;28;20041;-35
2023/08/06 03:42:48;;;;;;;;;;;14.30;99.90;;;;;;12472266;28;19935;-36
2023/08/06 03:48:49;;;;;;;;;;;14.30;99.90;;;;;;12502374;28;20277;-35
2023/08/06 03:54:53;;;;;;;;;;;14.30;99.90;;;;;;12482859;28;19925;-35
2023/08/06 04:01:02;;;;;;;;;;;14.30;99.90;;;;;;12497050;28;20016;-35
2023/08/06 04:07:04;;;;;;;;;;;14.30;99.90;;;;;;12495252;28;19925;-35
2023/08/06 04:13:06;;;;;;;;;;;14.20;99.90;;;;;;12499593;28;20051;-35
2023/08/06 04:19:08;;;;;;;;;;;14.20;99.90;;;;;;12496580;28;20447;-35
2023/08/06 04:25:10;;;;;;;;;;;14.10;99.90;;;;;;12506879;28;19939;-34
2023/08/06 04:31:12;;;;;;;;;;;14.20;99.90;;;;;;12496065;28;20187;-35
2023/08/06 04:37:13;;;;;;;;;;;14.20;99.90;;;;;;12503926;28;21653;-35
2023/08/06 04:43:15;;;;;;;;;;;14.10;99.90;;;;;;12504838;28;20338;-36
2023/08/06 04:49:17;;;;;;;;;;;14.10;99.90;;;;;;12491373;28;20015;-35
2023/08/06 04:55:19;;;;;;;;;;;14.10;99.90;;;;;;12508588;28;20023;-36
2023/08/06 05:01:21;;;;;;;;;;;14.10;99.90;;;;;;12494847;28;19925;-34
2023/08/06 05:07:23;;;;;;;;;;;14.50;99.90;;;;;;12497254;28;20440;-34
2023/08/06 05:13:25;;;;;;;;;;;15.00;99.90;;;;;;12514645;28;20030;-36
2023/08/06 05:19:27;;;;;;;;;;;14.80;99.90;;;;;;12490769;28;20645;-34
2023/08/06 05:25:28;;;;;;;;;;;14.50;99.90;;;;;;12502805;28;19928;-35
2023/08/06 05:31:30;;;;;;;;;;;14.60;99.90;;;;;;12487575;28;19986;-35
2023/08/06 05:37:32;;;;;;;;;;;14.90;99.90;;;;;;12501923;28;19932;-35
2023/08/06 05:43:34;;;;;;;;;;;14.90;99.90;;;;;;12509020;28;19925;-34
2023/08/06 05:49:35;;;;;;;;;;;14.90;99.90;;;;;;12488231;28;20735;-35
2023/08/06 05:55:39;;;;;;;;;;;15.00;99.90;;;;;;12511765;28;19980;-34
2023/08/06 06:01:40;;;;;;;;;;;15.00;99.90;;;;;;12502453;28;19978;-35
2023/08/06 06:07:42;;;;;;;;;;;15.20;99.90;;;;;;12502161;28;19935;-35
2023/08/06 06:13:44;;;;;;;;;;;15.20;99.90;;;;;;12507505;28;19935;-35
2023/08/06 06:19:46;;;;;;;;;;;15.20;99.90;;;;;;12514486;28;20439;-35
2023/08/06 06:25:49;;;;;;;;;;;15.30;99.90;;;;;;12500430;28;19936;-35
2023/08/06 06:31:51;;;;;;;;;;;15.40;99.90;;;;;;12502874;28;19981;-35
2023/08/06 06:37:54;;;;;;;;;;;15.80;99.90;;;;;;12495961;28;20357;-35
2023/08/06 06:43:55;;;;;;;;;;;16.30;99.90;;;;;;12484998;28;20073;-35
2023/08/06 06:50:00;;;;;;;;;;;16.70;99.90;;;;;;12494485;28;19931;-35
2023/08/06 06:56:03;;;;;;;;;;;16.60;99.90;;;;;;12493843;28;20312;-35
2023/08/06 07:02:05;;;;;;;;;;;16.50;99.90;;;;;;12499381;28;20345;-36
2023/08/06 07:08:07;;;;;;;;;;;16.70;99.90;;;;;;12478578;28;19929;-36
2023/08/06 07:14:09;;;;;;;;;;;16.60;99.90;;;;;;12501585;28;20407;-35
2023/08/06 07:20:11;;;;;;;;;;;16.70;99.90;;;;;;12498212;28;20015;-35
2023/08/06 07:26:12;;;;;;;;;;;16.60;99.90;;;;;;12481237;28;19935;-35
2023/08/06 07:32:14;;;;;;;;;;;16.80;99.90;;;;;;12497992;28;19982;-35
2023/08/06 07:38:16;;;;;;;;;;;16.90;99.90;;;;;;12494551;28;20325;-35
2023/08/06 07:44:18;;;;;;;;;;;17.10;99.90;;;;;;12497281;28;19940;-35
2023/08/06 07:50:20;;;;;;;;;;;17.20;99.90;;;;;;12503447;28;20019;-35
2023/08/06 07:56:21;;;;;;;;;;;17.30;99.90;;;;;;12484062;28;20962;-37
2023/08/06 08:02:23;;;;;;;;;;;17.30;99.90;;;;;;12502996;28;19929;-36
2023/08/06 08:08:25;;;;;;;;;;;17.40;99.90;;;;;;12483963;28;20035;-36
2023/08/06 08:14:28;;;;;;;;;;;17.50;99.90;;;;;;12506311;28;19928;-35
2023/08/06 08:20:35;;;;;;;;;;;17.60;99.90;;;;;;12482599;28;19933;-35
2023/08/06 08:26:36;;;;;;;;;;;17.50;99.90;;;;;;12499944;28;19936;-35
2023/08/06 08:32:38;;;;;;;;;;;17.60;99.90;;;;;;12493014;28;19932;-35
2023/08/06 08:38:40;;;;;;;;;;;17.20;99.90;;;;;;12492556;28;20369;-35
2023/08/06 08:44:42;;;;;;;;;;;17.20;99.90;;;;;;12490995;28;21358;-36
2023/08/06 08:50:44;;;;;;;;;;;17.20;99.90;;;;;;12496033;28;20012;-36
2023/08/06 08:56:46;;;;;;;;;;;17.30;99.90;;;;;;12473006;28;19936;-35
2023/08/06 09:02:48;;;;;;;;;;;17.10;99.90;;;;;;12514144;28;19981;-35
2023/08/06 09:09:11;;;;;;;;;;;17.20;99.90;;;;;;12512191;28;20474;-35
2023/08/06 09:15:13;;;;;;;;;;;17.20;99.90;;;;;;12502246;28;19925;-35
2023/08/06 09:21:18;;;;;;;;;;;17.20;99.90;;;;;;12506049;28;20008;-36
2023/08/06 09:27:22;;;;;;;;;;;17.30;99.90;;;;;;12507399;28;19929;-36
2023/08/06 09:33:24;;;;;;;;;;;17.30;99.90;;;;;;12517180;28;20349;-36
2023/08/06 09:39:27;;;;;;;;;;;17.30;99.90;;;;;;12509006;28;20381;-35
2023/08/06 09:45:33;;;;;;;;;;;17.30;99.90;;;;;;12516709;28;19932;-36
2023/08/06 09:51:34;;;;;;;;;;;17.30;99.90;;;;;;12519613;28;19936;-36
2023/08/06 09:57:36;;;;;;;;;;;17.40;99.90;;;;;;12517528;28;20179;-35
2023/08/06 10:03:39;;;;;;;;;;;17.60;99.90;;;;;;12519074;28;19971;-35
2023/08/06 10:09:40;;;;;;;;;;;17.70;99.90;;;;;;12518764;28;20284;-35
2023/08/06 10:15:42;;;;;;;;;;;18.10;99.90;;;;;;12512617;28;20360;-36
2023/08/06 10:22:13;;;;;;;;;;;19.00;99.90;;;;;;12517904;28;19936;-36
2023/08/06 10:28:17;;;;;;;;;;;19.70;99.90;;;;;;12520159;28;19929;-36
2023/08/06 10:34:19;;;;;;;;;;;20.40;99.90;;;;;;12514865;28;19963;-36
2023/08/06 10:40:21;;;;;;;;;;;20.00;99.90;;;;;;12523108;28;19982;-36
2023/08/06 10:46:26;;;;;;;;;;;19.40;99.90;;;;;;12506230;28;19929;-36
2023/08/06 10:52:28;;;;;;;;;;;19.80;99.90;;;;;;12507791;28;19948;-36
2023/08/06 10:58:33;;;;;;;;;;;20.70;99.90;;;;;;12514139;28;19925;-37
2023/08/06 11:04:35;;;;;;;;;;;21.00;99.90;;;;;;12507340;28;20326;-36
2023/08/06 11:10:37;;;;;;;;;;;20.50;99.90;;;;;;12519111;28;19989;-38
2023/08/06 11:16:45;;;;;;;;;;;20.70;99.90;;;;;;12501432;28;20361;-36
2023/08/06 11:22:47;;;;;;;;;;;20.40;99.90;;;;;;12523431;28;20219;-36
2023/08/06 11:28:49;;;;;;;;;;;20.20;99.90;;;;;;12484147;28;19933;-38
2023/08/06 11:34:52;;;;;;;;;;;20.30;99.90;;;;;;12497253;28;20015;-37
2023/08/06 11:40:54;;;;;;;;;;;20.20;99.90;;;;;;12492927;28;19928;-36
2023/08/06 11:46:56;;;;;;;;;;;20.40;99.90;;;;;;12500592;28;20385;-38
2023/08/06 11:52:59;;;;;;;;;;;21.10;99.90;;;;;;12495438;28;19925;-38
2023/08/06 11:59:01;;;;;;;;;;;21.20;99.90;;;;;;12487998;28;19928;-38
2023/08/06 12:05:09;;;;;;;;;;;21.60;99.90;;;;;;12488415;28;19929;-37
2023/08/06 12:11:11;;;;;;;;;;;21.10;99.90;;;;;;12504939;28;20443;-36
2023/08/06 12:17:13;;;;;;;;;;;20.90;99.90;;;;;;12495059;28;19986;-36
2023/08/06 12:23:15;;;;;;;;;;;20.20;99.90;;;;;;12496602;28;20023;-36
2023/08/06 12:29:17;;;;;;;;;;;19.60;99.90;;;;;;12508670;28;20257;-36
2023/08/06 12:35:19;;;;;;;;;;;19.50;99.90;;;;;;12488291;28;20403;-37
2023/08/06 12:41:21;;;;;;;;;;;19.20;99.90;;;;;;12491032;28;19933;-36
2023/08/06 12:47:23;;;;;;;;;;;19.30;99.90;;;;;;12501752;28;19960;-37
2023/08/06 12:53:25;;;;;;;;;;;19.40;99.90;;;;;;12495292;28;19928;-36
2023/08/06 12:59:27;;;;;;;;;;;20.30;99.90;;;;;;12483943;28;19925;-37
2023/08/06 13:05:28;;;;;;;;;;;20.90;99.90;;;;;;12506713;28;20377;-36
2023/08/06 13:11:33;;;;;;;;;;;20.60;99.90;;;;;;12508813;28;19978;-37
2023/08/06 13:17:35;;;;;;;;;;;20.10;99.90;;;;;;12505325;28;19925;-36
2023/08/06 13:23:37;;;;;;;;;;;19.90;99.90;;;;;;12499279;28;19999;-37
2023/08/06 13:29:39;;;;;;;;;;;19.90;99.90;;;;;;12506381;28;19974;-37
2023/08/06 13:35:40;;;;;;;;;;;19.70;99.90;;;;;;12487760;28;19936;-37
2023/08/06 13:41:43;;;;;;;;;;;19.60;99.90;;;;;;12490136;28;19932;-38
2023/08/06 13:47:44;;;;;;;;;;;19.80;99.90;;;;;;12508650;28;19924;-36
2023/08/06 13:53:46;;;;;;;;;;;19.80;99.90;;;;;;12486703;28;20354;-36
2023/08/06 13:59:48;;;;;;;;;;;19.80;99.90;;;;;;12504397;28;19972;-37
2023/08/06 14:05:50;;;;;;;;;;;19.80;99.90;;;;;;12508634;28;19928;-36
2023/08/06 14:11:51;;;;;;;;;;;19.50;99.90;;;;;;12497547;28;20459;-37
2023/08/06 14:17:53;;;;;;;;;;;19.00;99.90;;;;;;12481631;28;19937;-36
2023/08/06 14:23:55;;;;;;;;;;;18.80;99.90;;;;;;12526829;28;19983;-37
2023/08/06 14:29:56;;;;;;;;;;;18.80;99.90;;;;;;12509449;28;19970;-36
2023/08/06 14:35:58;;;;;;;;;;;18.90;99.90;;;;;;12501176;28;19973;-37
2023/08/06 14:42:00;;;;;;;;;;;18.90;99.90;;;;;;12505217;28;19936;-36
2023/08/06 14:48:01;;;;;;;;;;;18.90;99.90;;;;;;12508335;28;20496;-36
2023/08/06 14:54:03;;;;;;;;;;;19.00;99.90;;;;;;12512373;28;19990;-37
2023/08/06 15:00:06;;;;;;;;;;;18.80;99.90;;;;;;12502437;28;19937;-37
2023/08/06 15:06:08;;;;;;;;;;;18.70;99.90;;;;;;12514287;28;20055;-36
2023/08/06 15:12:09;;;;;;;;;;;18.40;99.90;;;;;;12496801;28;19933;-36
2023/08/06 15:18:11;;;;;;;;;;;18.00;99.90;;;;;;12508289;28;19929;-36
2023/08/06 15:24:13;;;;;;;;;;;17.80;99.90;;;;;;12512828;28;19925;-36
2023/08/06 15:30:15;;;;;;;;;;;17.60;99.90;;;;;;12518740;28;19972;-36
2023/08/06 15:36:16;;;;;;;;;;;17.50;99.90;;;;;;12504660;28;19928;-36
2023/08/06 15:42:18;;;;;;;;;;;17.50;99.90;;;;;;12495071;28;19986;-36
2023/08/06 15:48:20;;;;;;;;;;;17.00;99.90;;;;;;12498898;28;19933;-36
2023/08/06 15:54:22;;;;;;;;;;;17.00;99.90;;;;;;12495674;28;19990;-35
2023/08/06 16:00:23;;;;;;;;;;;16.60;99.90;;;;;;12494755;28;19933;-36
2023/08/06 16:06:25;;;;;;;;;;;16.30;99.90;;;;;;12476327;28;20432;-36
2023/08/06 16:12:29;;;;;;;;;;;16.40;99.90;;;;;;12495498;28;20401;-36
2023/08/06 16:18:30;;;;;;;;;;;16.60;99.90;;;;;;12494835;28;20019;-36
2023/08/06 16:24:32;;;;;;;;;;;16.60;99.90;;;;;;12495103;28;20051;-36
2023/08/06 16:30:34;;;;;;;;;;;16.50;99.90;;;;;;12503125;28;19970;-36
2023/08/06 16:36:35;;;;;;;;;;;16.60;99.90;;;;;;12493676;28;20438;-36
2023/08/06 16:42:37;;;;;;;;;;;16.40;99.90;;;;;;12484580;28;20461;-36
2023/08/06 16:48:39;;;;;;;;;;;16.30;99.90;;;;;;12499213;28;20758;-36
2023/08/06 16:54:41;;;;;;;;;;;16.30;99.90;;;;;;12496682;28;20408;-36
2023/08/06 17:00:46;;;;;;;;;;;16.00;99.90;;;;;;12496748;28;19947;-36
2023/08/06 17:06:48;;;;;;;;;;;15.60;99.90;;;;;;12486903;28;20840;-36
2023/08/06 17:12:50;;;;;;;;;;;15.50;99.90;;;;;;12500178;28;19932;-36
2023/08/06 17:18:56;;;;;;;;;;;15.10;99.90;;;;;;12492027;28;19931;-36
2023/08/06 17:24:57;;;;;;;;;;;14.90;99.90;;;;;;12494896;28;20589;-37
2023/08/06 17:30:59;;;;;;;;;;;14.90;99.90;;;;;;12495618;28;19937;-36
2023/08/06 17:37:04;;;;;;;;;;;14.80;99.90;;;;;;12504366;28;19933;-36
2023/08/06 17:43:06;;;;;;;;;;;14.80;99.90;;;;;;12502931;28;20008;-36
2023/08/06 17:49:08;;;;;;;;;;;14.80;99.90;;;;;;12508418;28;19939;-36
2023/08/06 17:55:10;;;;;;;;;;;14.70;99.90;;;;;;12516064;28;19975;-36
2023/08/06 18:01:11;;;;;;;;;;;14.70;99.90;;;;;;12476402;28;19929;-36
2023/08/06 18:07:13;;;;;;;;;;;14.60;99.90;;;;;;12488674;28;19979;-37
2023/08/06 18:13:15;;;;;;;;;;;14.60;99.90;;;;;;12488486;28;19928;-35
2023/08/06 18:19:17;;;;;;;;;;;14.50;99.90;;;;;;12510443;28;19932;-36
2023/08/06 18:25:19;;;;;;;;;;;14.50;99.90;;;;;;12520770;28;19928;-35
2023/08/06 18:31:21;;;;;;;;;;;14.50;99.90;;;;;;12511809;28;20462;-36
2023/08/06 18:37:23;;;;;;;;;;;14.60;99.90;;;;;;12515706;28;20007;-35
2023/08/06 18:43:25;;;;;;;;;;;14.70;99.90;;;;;;12505013;28;20925;-36
2023/08/06 18:49:26;;;;;;;;;;;14.90;99.90;;;;;;12515769;28;20016;-36
2023/08/06 18:55:30;;;;;;;;;;;14.70;99.90;;;;;;12507634;28;20058;-36
2023/08/06 19:01:32;;;;;;;;;;;14.60;99.90;;;;;;12510177;28;19933;-36
2023/08/06 19:07:34;;;;;;;;;;;14.50;99.90;;;;;;12490072;28;20387;-35
2023/08/06 19:13:35;;;;;;;;;;;14.40;99.90;;;;;;12505269;28;19978;-36
2023/08/06 19:19:37;;;;;;;;;;;14.40;99.90;;;;;;12509630;28;20451;-35
2023/08/06 19:25:40;;;;;;;;;;;14.50;99.90;;;;;;12502733;28;19933;-36
2023/08/06 19:31:42;;;;;;;;;;;14.60;99.90;;;;;;12509301;28;20012;-35
2023/08/06 19:38:04;;;;;;;;;;;14.50;99.90;;;;;;12509511;28;19924;-35
2023/08/06 19:44:05;;;;;;;;;;;14.70;99.90;;;;;;12506501;28;19925;-36
2023/08/06 19:50:07;;;;;;;;;;;14.80;99.90;;;;;;12517001;28;19925;-36
2023/08/06 19:56:09;;;;;;;;;;;14.80;99.90;;;;;;12510338;28;19925;-35
2023/08/06 20:02:11;;;;;;;;;;;14.80;99.90;;;;;;12493191;28;19939;-36
2023/08/06 20:08:12;;;;;;;;;;;14.90;99.90;;;;;;12500264;28;19929;-36
2023/08/06 20:14:14;;;;;;;;;;;14.90;99.90;;;;;;12501785;28;19989;-35
2023/08/06 20:20:16;;;;;;;;;;;14.90;99.90;;;;;;12505478;28;20355;-36
2023/08/06 20:26:18;;;;;;;;;;;14.90;99.90;;;;;;12502937;28;19970;-36
2023/08/06 20:32:19;;;;;;;;;;;14.90;99.90;;;;;;12510896;28;20023;-36
2023/08/06 20:38:23;;;;;;;;;;;14.90;99.90;;;;;;12516961;28;20011;-36
2023/08/06 20:44:26;;;;;;;;;;;14.80;99.90;;;;;;12510628;28;20020;-36
2023/08/06 20:50:28;;;;;;;;;;;14.80;99.90;;;;;;12511292;28;19960;-37
2023/08/06 20:56:30;;;;;;;;;;;14.80;99.90;;;;;;12509413;28;19936;-36
2023/08/06 21:02:32;;;;;;;;;;;14.70;99.90;;;;;;12510986;28;19929;-36
2023/08/06 21:08:34;;;;;;;;;;;14.60;99.90;;;;;;12491842;28;20521;-36
2023/08/06 21:14:36;;;;;;;;;;;14.50;99.90;;;;;;12500414;28;19952;-36
2023/08/06 21:20:38;;;;;;;;;;;14.50;99.90;;;;;;12499182;28;20039;-35
2023/08/06 21:26:40;;;;;;;;;;;14.50;99.90;;;;;;12502000;28;19931;-36
2023/08/06 21:32:41;;;;;;;;;;;14.50;99.90;;;;;;12502851;28;19929;-35
2023/08/06 21:38:43;;;;;;;;;;;14.40;99.90;;;;;;12514147;28;19929;-36
2023/08/06 21:44:45;;;;;;;;;;;14.50;99.90;;;;;;12516712;28;19936;-35
2023/08/06 21:50:47;;;;;;;;;;;14.50;99.90;;;;;;12490807;28;19987;-36
2023/08/06 21:56:48;;;;;;;;;;;14.50;99.90;;;;;;12505484;28;20023;-37
2023/08/06 22:02:50;;;;;;;;;;;14.40;99.90;;;;;;12513682;28;19963;-37
2023/08/06 22:08:53;;;;;;;;;;;14.30;99.90;;;;;;12503131;28;19979;-36
2023/08/06 22:14:55;;;;;;;;;;;14.30;99.90;;;;;;12518685;28;19925;-36
2023/08/06 22:20:57;;;;;;;;;;;14.30;99.90;;;;;;12518813;28;19952;-36
2023/08/06 22:26:59;;;;;;;;;;;14.40;99.90;;;;;;12522435;28;19933;-37
2023/08/06 22:33:00;;;;;;;;;;;14.30;99.90;;;;;;12507933;28;19986;-37
2023/08/06 22:39:02;;;;;;;;;;;14.30;99.90;;;;;;12514224;28;19929;-36
2023/08/06 22:45:05;;;;;;;;;;;14.20;99.90;;;;;;12519343;28;20434;-36
2023/08/06 22:51:06;;;;;;;;;;;14.20;99.90;;;;;;12502950;28;21388;-37
2023/08/06 22:57:08;;;;;;;;;;;14.20;99.90;;;;;;12506940;28;20028;-36
2023/08/06 23:03:10;;;;;;;;;;;14.20;99.90;;;;;;12513808;28;20300;-36
2023/08/06 23:09:13;;;;;;;;;;;14.10;99.90;;;;;;12522922;28;19977;-36
2023/08/06 23:15:15;;;;;;;;;;;14.10;99.90;;;;;;12504966;28;19925;-37
2023/08/06 23:21:17;;;;;;;;;;;14.10;99.90;;;;;;12512710;28;20020;-36
2023/08/06 23:27:19;;;;;;;;;;;14.00;99.90;;;;;;12516172;28;19929;-37
2023/08/06 23:33:20;;;;;;;;;;;14.00;99.90;;;;;;12515692;28;19971;-36
2023/08/06 23:39:22;;;;;;;;;;;14.00;99.90;;;;;;12494688;28;19983;-36
2023/08/06 23:45:25;;;;;;;;;;;14.00;99.90;;;;;;12524849;22;20595;-85
2023/08/06 23:51:27;;;;;;;;;;;14.00;99.90;;;;;;12447576;28;20013;-84
2023/08/06 23:57:28;;;;;;;;;;;14.00;99.90;;;;;;12462732;28;19925;-85
